Tendoy, ID

4:25 AM MDT on July 14, 2014 (GMT -0600)
Lemhi County (KSMN) Elev 4045 ft | 45.12 °N, 113.88 °W | Change Station
Active Advisory: Flash Flood Watch

Current weather conditions updated 10 minutes ago

Clear
Clear
63 °F
Feels Like 63 °F
N
0
Wind Variable Wind from North

Today is forecast to be Cooler than yesterday. Isolated thunderstorms.

Today
High -- | Low -- °F
--% Chance of Precip.
Yesterday
High -- | Low -- °F
Precip. -- in
6:01 AM 9:18 PM
Waning Gibbous, 94% visible
Pressure 30.15 in
Visibility 10.0 miles
Clouds Clear
Dew Point 45 °F
Humidity 52%
Rainfall 0.00 in
Snow Depth Not available.
UV 0 out of 12
Pollen 4.50 out of 12
Air Quality Not available.
Flu Activity Sporadic
METAR KSMN 141015Z AUTO 00000KT 10SM CLR 17/07 A3015 RMK AO1

More Conditions Fewer Conditions

Pressure 30.15 in
Visibility 10.0 miles
Clouds Clear
Dew Point 45 °F
Humidity 52%
Rainfall 0.00 in
Snow Depth Not available.
UV 0 out of 12
Pollen 4.50 out of 12
Air Quality Not available.
Flu Activity Sporadic
METAR KSMN 141015Z AUTO 00000KT 10SM CLR 17/07 A3015 RMK AO1

More Conditions Fewer Conditions

10-Day Weather Forecast

Almanac

Astronomy

Jul. 14, 2014 Rise Set
Actual Time 6:01 AM MDT 9:18 PM MDT
Civil Twilight 5:25 AM MDT 9:54 PM MDT
Nautical Twilight 4:38 AM MDT 10:41 PM MDT
Astronomical Twilight 3:40 AM MDT 11:39 PM MDT
Moon 10:40 PM MDT 8:58 AM MDT
Length of Visible Light 16h 29m
Length of Day
15h 17m
Tomorrow will be 1m 37s shorter.
Waning Gibbous, 94% of the Moon is Illuminated
Today
Waning Gibbous
Jul 18
Last Quarter
Jul 26
New
Aug 3
First Quarter
Aug 10
Full

Today's Extremes

State Highs State Lows

Community

WunderPhotos

Upload Photos

1,733,603 photos uploaded!

Nearby

Snow Depth

Station Depth Elevation
Smiley Mountain 0 in 9520 ft
Morgan Creek 0 in 7600 ft
Moonshine 1 in 7440 ft
Mill Creek Summit 1 in 8800 ft
Hilts Creek 0 in 8000 ft

Earthquake Activity

City Distance Mag. Time & Date
No recent earthquake activity has been reported nearby.
Minimum magnitude displayed is 2.5.

Coastal Water Temperatures

Place Temperature
No Stations Reporting

Nearby Weather Stations

Station Location Temp. Dew Point Humidity Wind Precip. Elev Updated Type
AIRNow Salmon Met , Salmon, ID 67 °F 46 °F 48% North  at  - 0.00 in / hr 3931 ft 1:00 AM MDT MADIS
RAWS EZRA CREEK ID, Ellis, ID 68 °F 40 °F 36% WNW  at  3 mph 0.00 in / hr 6404 ft 3:26 AM MDT MADIS
MesoWest SCHWARTZ LAKE , Lemhi, ID 59 °F - - North  at  - 0.00 in / hr 8620 ft 1:00 AM MDT MADIS

Show More Stations Show Fewer Stations